AirNav   Pilot Hours Calculator
 
 483 users online  

CA84 Torrey Pines Gliderport
San Diego, California, USA

GOING TO SAN DIEGO?


FAA INFORMATION EFFECTIVE 15 AUGUST 2019

Location

FAA Identifier: CA84
Lat/Long: 32-53-23.0000N 117-14-49.0000W
32-53.383333N 117-14.816667W
32.8897222,-117.2469444
(estimated)
Elevation: 372 ft. / 113 m (estimated)
Variation: 13E (1985)
From city: 11 miles NW of SAN DIEGO, CA
Time zone: UTC -7 (UTC -8 during Standard Time)
Zip code: 92037

Gliderport Operations

Gliderport use: Private use. Permission required prior to landing
Activation date: 11/1961
Control tower: no
ARTCC: LOS ANGELES CENTER
FSS: SAN DIEGO FLIGHT SERVICE STATION
Attendance: UNATNDD
Wind indicator: no
Segmented circle: no

Gliderport Communications

WX ASOS at MYF (7 nm SE): 126.9 (858-576-4337)
WX ASOS at SAN (10 nm S): PHONE 619-296-8934
WX AWOS-3P at SEE (14 nm E): 125.45 (619-449-1228)
WX ASOS at CRQ (14 nm N): PHONE 760-930-0864
WX ASOS at RNM (19 nm NE): 132.025 (760-789-0736)

Nearby radio navigation aids

VOR radial/distance  VOR name  Freq  Var
MZBr335/6.5MISSION BAY VORTAC117.8015E
PGYr307/21.5POGGI VORTAC116.4514E
OCNr143/22.7OCEANSIDE VORTAC115.3015E
TIJr311/25.7TIJUANA VOR/DME116.5014E
JLIr231/36.5JULIAN VORTAC114.0015E

Gliderport Services

Airframe service: NONE
Powerplant service: NONE

Runway Information

Runway 9/27

Dimensions: 1500 x 30 ft. / 457 x 9 m
Surface: asphalt
RUNWAY 9  RUNWAY 27
Traffic pattern: leftleft
Obstructions: nonetrees, 100 ft. from runway

Gliderport Ownership and Management from official FAA records

Ownership: Publicly-owned
Owner: CITY OF SAN DIEGO
Manager: JIM FROST
4740 HARBINSON AVE
LA MESA, CA 91941
Phone 619-461-9614
WORK PHONE 619-535-9505 EXT 1585

Additional Remarks

GLIDER PORT IS LEASED FM CITY TO THE ASSOCD GLIDER CLUB OF SOUTHERN CALIF FOR STUDENT TRAINING & RIDGE SOARING.
ALL ACFT ARE TRAILERED GLIDERS.
ROLLING RWY .6 PERCENT GRADIENT.
EXTENSIVE HANG GLIDER OPERATIONS ON WEEKENDS AND WEEKDAYS.
FOR CD CTC LOS ANGELES ARTCC AT 661-575-2079.

Instrument Procedures

There are no published instrument procedures at CA84.

Some nearby airports with instrument procedures:

KNKX - Miramar MCAS (Joe Foss Field) Airport (5 nm E)
KMYF - Montgomery-Gibbs Executive Airport (7 nm SE)
KSAN - San Diego International Airport (10 nm S)
KNZY - North Island Naval Air Station (Halsey Field) (12 nm S)
KSEE - Gillespie Field Airport (14 nm E)
KCRQ - Mc Clellan-Palomar Airport (14 nm N)
KRNM - Ramona Airport (19 nm NE)
 
Loc | Ops | Rwys | IFR | FBO | Links
Com | Nav | Svcs | Stats | Notes
Area around CA84 (Torrey Pines Gliderport)
 
Road maps at: MapQuest Bing Google
 
Aerial photo
WARNING: Photo may not be current or correct
Aerial photo of CA84 (Torrey Pines Gliderport)
Photo by Doug Fronius
Photo taken 13-Mar-2004
from a 1942 Schweizer TG-2 sailplane.

Do you have a better or more recent aerial photo of Torrey Pines Gliderport that you would like to share? If so, please send us your photo.

 
Sectional chart

 
Airport distance calculator
Flying to Torrey Pines Gliderport? Find the distance to fly.

From to CA84

Sunrise and sunset
Times for 24-Aug-2019
 Local
(UTC-7)
 Zulu
(UTC)
Morning civil twilight05:5412:54
Sunrise06:1913:19
Sunset19:2302:23
Evening civil twilight19:4902:49

Current date and time
Zulu (UTC)  25-Aug-2019 06:39:53
Local (UTC-7)  24-Aug-2019 23:39:53
 
METAR
KNKX 
6nm E 
250555Z 34004KT 10SM CLR 22/18 A2997 RMK AO2 SLP142 T02170178 10283 20217 51007
KMYF 
7nm SE 
250553Z AUTO 00000KT 10SM CLR 21/17 A2997 RMK AO2 SLP144 T02060172 10250 20206 51007
KSAN 
10nm S 
250551Z 30004KT 10SM FEW010 21/19 A2998 RMK AO2 SLP150 T02110189 10244 20211 51007
KNZY 
11nm S 
250552Z AUTO 27003KT 10SM CLR 21/18 A2996 RMK AO2 SLP144 T02110178 10228 20206 51008
KCRQ 
15nm N 
250553Z AUTO 00000KT 10SM CLR 22/18 A2996 RMK AO2 SLP142 T02170183 10233 20211 53005
KSEE 
15nm E 
250615Z AUTO 30005KT 10SM CLR 22/17 A2996 RMK AO2
KRNM 
19nm NE 
250553Z AUTO 05003KT 10SM CLR 21/14 A3000 RMK AO2 SLP140 T02110144 10311 20211 51008
TAF
KNKX 
6nm E 
2503/2603 VRB05KT 9999 FEW010 QNH2992INS TEMPO 2503/2509 9000 BR BKN009 TEMPO 2509/2515 3200 BR BKN004 FM251730 28008KT 9999 NSW SKC QNH2990INS T18/2512Z T29/2521Z
KSAN 
10nm S 
250520Z 2506/2612 VRB05KT P6SM SCT011 FM250800 VRB03KT P6SM BKN010 FM251500 VRB04KT P6SM SCT010 FM251900 28009KT P6SM FEW010 SCT100 FM260200 VRB05KT P6SM FEW008 SCT150 FM261000 VRB03KT P6SM BKN008
KNZY 
11nm S 
2415/2515 VRB06KT 9999 FEW012 FEW250 QNH2990INS FM241800 26008KT 9999 FEW020 FEW250 QNH2988INS BECMG 2502/2504 VRB06KT 9999 SCT018 QNH2990INS TEMPO 2507/2513 BKN015 T23/2421Z T17/2513Z FS30136
KCRQ 
15nm N 
250520Z 2506/2606 VRB05KT P6SM SCT009 FM250800 VRB03KT P6SM BKN009 FM251600 VRB04KT P6SM FEW011 FM251900 25008KT P6SM SCT100 FM260200 VRB05KT P6SM FEW008 SCT150
NOTAMs
Click for the latest NOTAMs
NOTAMs are issued by the DoD/FAA and will open in a separate window not controlled by AirNav.

 

 
 

Would you like to see your business listed on this page?

 If your business provides an interesting product or service to pilots, flight crews, aircraft, or users of the Torrey Pines Gliderport, you should consider listing it here.  To start the listing process, click on the button below
 
Add a business
 

Other Pages about Torrey Pines Gliderport

www.agcsc.org/torrey_pines_info.html
 
Update a link
 
Copyright © AirNav, LLC. All rights reserved. Privacy Policy  Contact